Green Island, New York
Current Conditions -  °F | °C
As of 10:51 AM on Sunday 25 Jan 2015 (Local Time) from KALB Reporting Station
Few Clouds Few Clouds  
Wind Chill: 16°   Ceiling: Unl
Heat Index: 28°   Visibility: 10mi
Dew Point:   Wind: 16mph
Humidity: 45%   Direction: 310°NW
Pressure: 29.77"   Gusts: 25mph
Location:  42.7483°N, 73.6935°W
Report Text: KALB 251551Z 31014G22KT 10SM FEW039 M02/M13 A2977 RMK AO2 PK WND 31027/1452 SLP085 T10221128
Loading
Personal Weather Stations






























Interactive Weather Map New forecast layout! Learn more

10-Day Weather Forecast

Advertisements
Track Severe Weather on mobile